sensor_id;sensor_type;location;lat;lon;timestamp;pressure;altitude;pressure_sealevel;temperature;humidity
60918;BME280;46792;38.854;-9.384;2023-01-29T00:00:13;100057.94;;;7.66;68.08
60918;BME280;46792;38.854;-9.384;2023-01-29T00:02:14;100065.31;;;7.71;68.13
60918;BME280;46792;38.854;-9.384;2023-01-29T00:06:52;100052.91;;;7.70;68.43
60918;BME280;46792;38.854;-9.384;2023-01-29T00:09:12;100064.25;;;7.72;68.57
60918;BME280;46792;38.854;-9.384;2023-01-29T00:11:13;100059.94;;;7.71;68.55
60918;BME280;46792;38.854;-9.384;2023-01-29T00:13:13;100060.38;;;7.68;68.44
60918;BME280;46792;38.854;-9.384;2023-01-29T00:15:15;100052.56;;;7.66;68.89
60918;BME280;46792;38.854;-9.384;2023-01-29T00:17:15;100057.09;;;7.66;69.33
60918;BME280;46792;38.854;-9.384;2023-01-29T00:19:16;100046.81;;;7.63;68.86
60918;BME280;46792;38.854;-9.384;2023-01-29T00:21:19;100052.69;;;7.59;69.27
60918;BME280;46792;38.854;-9.384;2023-01-29T00:23:22;100055.38;;;7.59;69.32
60918;BME280;46792;38.854;-9.384;2023-01-29T00:25:24;100046.13;;;7.55;69.38
60918;BME280;46792;38.854;-9.384;2023-01-29T00:27:43;100046.13;;;7.55;69.54
60918;BME280;46792;38.854;-9.384;2023-01-29T00:30:02;100047.97;;;7.55;69.32
60918;BME280;46792;38.854;-9.384;2023-01-29T00:32:12;100049.41;;;7.57;69.63
60918;BME280;46792;38.854;-9.384;2023-01-29T00:34:12;100041.00;;;7.54;69.18
60918;BME280;46792;38.854;-9.384;2023-01-29T00:36:31;100044.72;;;7.53;69.16
60918;BME280;46792;38.854;-9.384;2023-01-29T00:38:34;100039.91;;;7.55;68.81
60918;BME280;46792;38.854;-9.384;2023-01-29T00:40:38;100044.03;;;7.57;68.80
60918;BME280;46792;38.854;-9.384;2023-01-29T00:42:57;100031.41;;;7.58;68.13
60918;BME280;46792;38.854;-9.384;2023-01-29T00:45:16;100030.81;;;7.56;68.04
60918;BME280;46792;38.854;-9.384;2023-01-29T00:47:19;100024.75;;;7.60;67.92
60918;BME280;46792;38.854;-9.384;2023-01-29T00:49:37;100034.47;;;7.61;67.99
60918;BME280;46792;38.854;-9.384;2023-01-29T00:51:38;100028.50;;;7.59;67.69
60918;BME280;46792;38.854;-9.384;2023-01-29T00:53:39;100028.50;;;7.59;67.56
60918;BME280;46792;38.854;-9.384;2023-01-29T00:55:39;100028.72;;;7.58;67.69
60918;BME280;46792;38.854;-9.384;2023-01-29T00:57:40;100019.97;;;7.51;67.73
60918;BME280;46792;38.854;-9.384;2023-01-29T00:59:41;100019.97;;;7.51;67.70
60918;BME280;46792;38.854;-9.384;2023-01-29T01:01:41;100020.28;;;7.42;67.56
60918;BME280;46792;38.854;-9.384;2023-01-29T01:04:00;100014.44;;;7.34;68.52
60918;BME280;46792;38.854;-9.384;2023-01-29T01:06:06;100012.44;;;7.29;68.73
60918;BME280;46792;38.854;-9.384;2023-01-29T01:08:07;100007.31;;;7.27;69.06
60918;BME280;46792;38.854;-9.384;2023-01-29T01:10:46;100012.44;;;7.29;68.74
60918;BME280;46792;38.854;-9.384;2023-01-29T01:12:58;100020.59;;;7.22;69.20
60918;BME280;46792;38.854;-9.384;2023-01-29T01:14:59;100014.03;;;7.18;69.57
60918;BME280;46792;38.854;-9.384;2023-01-29T01:16:59;100005.41;;;7.16;69.30
60918;BME280;46792;38.854;-9.384;2023-01-29T01:21:20;100001.88;;;7.04;70.59
60918;BME280;46792;38.854;-9.384;2023-01-29T01:23:20;100003.16;;;7.01;70.60
60918;BME280;46792;38.854;-9.384;2023-01-29T01:25:23;100006.66;;;7.02;70.60
60918;BME280;46792;38.854;-9.384;2023-01-29T01:27:43;99997.78;;;7.01;70.58
60918;BME280;46792;38.854;-9.384;2023-01-29T01:30:03;100001.28;;;7.02;70.39
60918;BME280;46792;38.854;-9.384;2023-01-29T01:32:04;100007.69;;;7.00;70.58
60918;BME280;46792;38.854;-9.384;2023-01-29T01:34:05;100007.34;;;6.97;70.61
60918;BME280;46792;38.854;-9.384;2023-01-29T01:38:44;100011.41;;;6.88;70.79
60918;BME280;46792;38.854;-9.384;2023-01-29T01:40:45;100008.31;;;6.84;71.26
60918;BME280;46792;38.854;-9.384;2023-01-29T01:47:53;100000.78;;;6.93;69.70
60918;BME280;46792;38.854;-9.384;2023-01-29T01:50:04;99999.78;;;7.06;68.14
60918;BME280;46792;38.854;-9.384;2023-01-29T01:52:07;100002.72;;;7.16;67.55
60918;BME280;46792;38.854;-9.384;2023-01-29T01:54:29;99994.47;;;7.29;66.91
60918;BME280;46792;38.854;-9.384;2023-01-29T01:58:54;99987.84;;;7.44;66.10
60918;BME280;46792;38.854;-9.384;2023-01-29T02:01:14;99997.53;;;7.45;66.09
60918;BME280;46792;38.854;-9.384;2023-01-29T02:03:18;99998.00;;;7.42;66.18
60918;BME280;46792;38.854;-9.384;2023-01-29T02:05:40;99993.31;;;7.37;66.32
60918;BME280;46792;38.854;-9.384;2023-01-29T02:08:54;100001.44;;;7.30;66.38
60918;BME280;46792;38.854;-9.384;2023-01-29T02:11:15;99998.06;;;7.23;66.00
60918;BME280;46792;38.854;-9.384;2023-01-29T02:13:17;99979.25;;;7.11;65.96
60918;BME280;46792;38.854;-9.384;2023-01-29T02:15:18;99994.19;;;7.19;65.63
60918;BME280;46792;38.854;-9.384;2023-01-29T02:17:37;99996.28;;;7.17;65.75
60918;BME280;46792;38.854;-9.384;2023-01-29T02:28:59;99988.78;;;6.95;66.46
60918;BME280;46792;38.854;-9.384;2023-01-29T02:31:35;99991.91;;;6.92;66.79
60918;BME280;46792;38.854;-9.384;2023-01-29T02:38:16;99988.31;;;6.98;66.56
60918;BME280;46792;38.854;-9.384;2023-01-29T02:41:12;99982.13;;;6.98;66.62
60918;BME280;46792;38.854;-9.384;2023-01-29T02:47:44;99979.31;;;6.93;66.66
60918;BME280;46792;38.854;-9.384;2023-01-29T02:50:02;99979.53;;;6.91;66.48
60918;BME280;46792;38.854;-9.384;2023-01-29T02:52:22;99982.22;;;6.91;66.67
60918;BME280;46792;38.854;-9.384;2023-01-29T02:54:38;99976.41;;;6.94;66.55
60918;BME280;46792;38.854;-9.384;2023-01-29T02:56:47;99976.53;;;6.99;66.56
60918;BME280;46792;38.854;-9.384;2023-01-29T02:59:07;99985.63;;;6.98;66.39
60918;BME280;46792;38.854;-9.384;2023-01-29T03:01:23;99982.00;;;6.93;66.45
60918;BME280;46792;38.854;-9.384;2023-01-29T03:03:51;99984.31;;;6.89;66.52
60918;BME280;46792;38.854;-9.384;2023-01-29T03:08:01;99975.09;;;6.85;66.99
60918;BME280;46792;38.854;-9.384;2023-01-29T03:10:38;99972.41;;;6.85;67.39
60918;BME280;46792;38.854;-9.384;2023-01-29T03:12:40;99971.34;;;6.86;66.93
60918;BME280;46792;38.854;-9.384;2023-01-29T03:14:43;99979.19;;;6.88;66.78
60918;BME280;46792;38.854;-9.384;2023-01-29T03:17:06;99980.25;;;6.87;66.72
60918;BME280;46792;38.854;-9.384;2023-01-29T03:21:40;99972.19;;;6.87;66.88
60918;BME280;46792;38.854;-9.384;2023-01-29T03:24:20;99965.63;;;6.82;66.27
60918;BME280;46792;38.854;-9.384;2023-01-29T03:26:42;99974.72;;;6.81;66.58
60918;BME280;46792;38.854;-9.384;2023-01-29T03:29:07;99970.16;;;6.82;66.68
60918;BME280;46792;38.854;-9.384;2023-01-29T03:31:28;99967.38;;;6.77;66.83
60918;BME280;46792;38.854;-9.384;2023-01-29T03:34:06;99971.31;;;6.74;66.79
60918;BME280;46792;38.854;-9.384;2023-01-29T03:36:13;99974.59;;;6.76;66.77
60918;BME280;46792;38.854;-9.384;2023-01-29T03:38:16;99966.41;;;6.71;66.71
60918;BME280;46792;38.854;-9.384;2023-01-29T03:40:17;99969.91;;;6.72;66.73
60918;BME280;46792;38.854;-9.384;2023-01-29T03:47:13;99968.22;;;6.59;67.11
60918;BME280;46792;38.854;-9.384;2023-01-29T03:49:38;99968.31;;;6.52;67.95
60918;BME280;46792;38.854;-9.384;2023-01-29T03:57:27;99970.66;;;6.30;68.49
60918;BME280;46792;38.854;-9.384;2023-01-29T03:59:37;99971.19;;;6.20;68.91
60918;BME280;46792;38.854;-9.384;2023-01-29T04:02:18;99966.22;;;6.05;70.30
60918;BME280;46792;38.854;-9.384;2023-01-29T04:04:31;99962.72;;;5.98;70.41
60918;BME280;46792;38.854;-9.384;2023-01-29T04:06:36;99965.50;;;5.91;70.78
60918;BME280;46792;38.854;-9.384;2023-01-29T04:11:08;99972.63;;;5.78;72.43
60918;BME280;46792;38.854;-9.384;2023-01-29T04:13:12;99968.53;;;5.76;71.96
60918;BME280;46792;38.854;-9.384;2023-01-29T04:15:20;99977.16;;;5.78;72.07
60918;BME280;46792;38.854;-9.384;2023-01-29T04:22:48;99975.84;;;5.87;71.89
60918;BME280;46792;38.854;-9.384;2023-01-29T04:24:50;99974.81;;;5.88;71.78
60918;BME280;46792;38.854;-9.384;2023-01-29T04:27:15;99983.00;;;5.93;71.40
60918;BME280;46792;38.854;-9.384;2023-01-29T04:30:22;99971.44;;;5.93;71.55
60918;BME280;46792;38.854;-9.384;2023-01-29T04:37:13;99972.13;;;5.88;70.88
60918;BME280;46792;38.854;-9.384;2023-01-29T04:39:48;99970.03;;;5.90;70.55
60918;BME280;46792;38.854;-9.384;2023-01-29T04:46:32;99967.13;;;5.92;70.32
60918;BME280;46792;38.854;-9.384;2023-01-29T04:51:26;99951.94;;;5.86;70.21
60918;BME280;46792;38.854;-9.384;2023-01-29T04:58:46;99964.53;;;5.85;69.96
60918;BME280;46792;38.854;-9.384;2023-01-29T05:01:10;99966.97;;;5.87;69.59
60918;BME280;46792;38.854;-9.384;2023-01-29T05:03:13;99960.19;;;5.84;69.44
60918;BME280;46792;38.854;-9.384;2023-01-29T05:05:33;99966.16;;;5.86;69.40
60918;BME280;46792;38.854;-9.384;2023-01-29T05:07:36;99961.59;;;5.87;69.48
60918;BME280;46792;38.854;-9.384;2023-01-29T05:09:41;99967.38;;;5.90;69.44
60918;BME280;46792;38.854;-9.384;2023-01-29T05:11:46;99962.66;;;5.86;68.87
60918;BME280;46792;38.854;-9.384;2023-01-29T05:13:49;99972.31;;;5.87;68.72
60918;BME280;46792;38.854;-9.384;2023-01-29T05:16:15;99971.97;;;5.83;68.87
60918;BME280;46792;38.854;-9.384;2023-01-29T05:18:36;99973.84;;;5.83;68.24
60918;BME280;46792;38.854;-9.384;2023-01-29T05:20:38;99974.28;;;5.79;68.26
60918;BME280;46792;38.854;-9.384;2023-01-29T05:22:40;99969.13;;;5.78;67.94
60918;BME280;46792;38.854;-9.384;2023-01-29T05:24:42;99975.91;;;5.81;67.74
60918;BME280;46792;38.854;-9.384;2023-01-29T05:26:44;99967.72;;;5.75;67.74
60918;BME280;46792;38.854;-9.384;2023-01-29T05:29:04;99977.03;;;5.73;67.34
60918;BME280;46792;38.854;-9.384;2023-01-29T05:31:05;99972.91;;;5.70;67.52
60918;BME280;46792;38.854;-9.384;2023-01-29T05:33:23;99978.88;;;5.72;67.62
60918;BME280;46792;38.854;-9.384;2023-01-29T05:35:24;99975.00;;;5.68;67.27
60918;BME280;46792;38.854;-9.384;2023-01-29T05:37:25;99971.72;;;5.66;67.52
60918;BME280;46792;38.854;-9.384;2023-01-29T05:39:25;99970.09;;;5.65;67.62
60918;BME280;46792;38.854;-9.384;2023-01-29T05:41:45;99965.16;;;5.62;67.61
60918;BME280;46792;38.854;-9.384;2023-01-29T05:43:45;99965.41;;;5.60;67.27
60918;BME280;46792;38.854;-9.384;2023-01-29T05:46:04;99969.91;;;5.60;66.99
60918;BME280;46792;38.854;-9.384;2023-01-29T05:48:06;99968.06;;;5.60;67.10
60918;BME280;46792;38.854;-9.384;2023-01-29T05:50:08;99961.06;;;5.59;66.85
60918;BME280;46792;38.854;-9.384;2023-01-29T05:52:27;99965.16;;;5.62;66.64
60918;BME280;46792;38.854;-9.384;2023-01-29T05:54:46;99959.56;;;5.63;66.55
60918;BME280;46792;38.854;-9.384;2023-01-29T05:57:05;99962.50;;;5.62;66.59
60918;BME280;46792;38.854;-9.384;2023-01-29T05:59:06;99962.72;;;5.60;66.79
60918;BME280;46792;38.854;-9.384;2023-01-29T06:01:15;99962.91;;;5.59;66.52
60918;BME280;46792;38.854;-9.384;2023-01-29T06:03:16;99949.22;;;5.48;66.23
60918;BME280;46792;38.854;-9.384;2023-01-29T06:05:17;99957.56;;;5.59;66.35
60918;BME280;46792;38.854;-9.384;2023-01-29T06:07:17;99963.97;;;5.58;66.41
60918;BME280;46792;38.854;-9.384;2023-01-29T06:09:18;99964.03;;;5.51;66.29
60918;BME280;46792;38.854;-9.384;2023-01-29T06:11:19;99966.50;;;5.53;66.45
60918;BME280;46792;38.854;-9.384;2023-01-29T06:13:20;99966.25;;;5.54;65.77
60918;BME280;46792;38.854;-9.384;2023-01-29T06:15:20;99973.47;;;5.54;65.99
60918;BME280;46792;38.854;-9.384;2023-01-29T06:17:21;99964.63;;;5.53;65.48
60918;BME280;46792;38.854;-9.384;2023-01-29T06:19:21;99959.50;;;5.52;65.64
60918;BME280;46792;38.854;-9.384;2023-01-29T06:21:22;99960.53;;;5.51;65.72
60918;BME280;46792;38.854;-9.384;2023-01-29T06:23:23;99954.94;;;5.52;65.58
60918;BME280;46792;38.854;-9.384;2023-01-29T06:25:23;99962.75;;;5.54;65.22
60918;BME280;46792;38.854;-9.384;2023-01-29T06:27:24;99960.31;;;5.52;65.18
60918;BME280;46792;38.854;-9.384;2023-01-29T06:29:24;99966.44;;;5.59;64.71
60918;BME280;46792;38.854;-9.384;2023-01-29T06:33:44;99967.84;;;5.62;63.95
60918;BME280;46792;38.854;-9.384;2023-01-29T06:38:23;99965.97;;;5.62;63.95
60918;BME280;46792;38.854;-9.384;2023-01-29T06:40:24;99967.25;;;5.60;64.08
60918;BME280;46792;38.854;-9.384;2023-01-29T06:42:24;99968.66;;;5.62;64.03
60918;BME280;46792;38.854;-9.384;2023-01-29T06:44:27;99971.31;;;5.62;63.52
60918;BME280;46792;38.854;-9.384;2023-01-29T06:46:28;99973.19;;;5.62;63.35
60918;BME280;46792;38.854;-9.384;2023-01-29T06:55:51;99978.25;;;5.52;63.03
60918;BME280;46792;38.854;-9.384;2023-01-29T06:57:52;99968.16;;;5.47;62.88
60918;BME280;46792;38.854;-9.384;2023-01-29T07:00:11;99982.34;;;5.54;62.29
60918;BME280;46792;38.854;-9.384;2023-01-29T07:02:12;99974.72;;;5.51;62.16
60918;BME280;46792;38.854;-9.384;2023-01-29T07:04:13;99980.94;;;5.52;61.98
60918;BME280;46792;38.854;-9.384;2023-01-29T07:06:14;99969.00;;;5.47;62.47
60918;BME280;46792;38.854;-9.384;2023-01-29T07:08:14;99976.00;;;5.48;62.31
60918;BME280;46792;38.854;-9.384;2023-01-29T07:10:15;99978.50;;;5.43;62.34
60918;BME280;46792;38.854;-9.384;2023-01-29T07:12:15;99978.88;;;5.47;62.23
60918;BME280;46792;38.854;-9.384;2023-01-29T07:14:16;99980.59;;;5.41;62.08
60918;BME280;46792;38.854;-9.384;2023-01-29T07:16:35;99999.31;;;5.41;61.94
60918;BME280;46792;38.854;-9.384;2023-01-29T07:18:35;99998.72;;;5.39;62.10
60918;BME280;46792;38.854;-9.384;2023-01-29T07:20:55;99997.06;;;5.38;61.67
60918;BME280;46792;38.854;-9.384;2023-01-29T07:23:15;100004.91;;;5.40;61.29
60918;BME280;46792;38.854;-9.384;2023-01-29T07:25:16;100006.19;;;5.37;61.12
60918;BME280;46792;38.854;-9.384;2023-01-29T07:27:17;99997.97;;;5.32;61.23
60918;BME280;46792;38.854;-9.384;2023-01-29T07:29:17;100002.94;;;5.28;61.57
60918;BME280;46792;38.854;-9.384;2023-01-29T07:31:18;100007.09;;;5.24;61.47
60918;BME280;46792;38.854;-9.384;2023-01-29T07:33:20;100007.91;;;5.25;61.13
60918;BME280;46792;38.854;-9.384;2023-01-29T07:35:21;100007.28;;;5.23;61.38
60918;BME280;46792;38.854;-9.384;2023-01-29T07:37:22;100015.72;;;5.26;61.00
60918;BME280;46792;38.854;-9.384;2023-01-29T07:39:23;100007.28;;;5.23;60.73
60918;BME280;46792;38.854;-9.384;2023-01-29T07:41:23;100018.44;;;5.20;60.85
60918;BME280;46792;38.854;-9.384;2023-01-29T07:43:24;100022.34;;;5.17;60.80
60918;BME280;46792;38.854;-9.384;2023-01-29T07:45:25;100017.41;;;5.21;60.83
60918;BME280;46792;38.854;-9.384;2023-01-29T07:47:26;100015.41;;;5.09;60.60
60918;BME280;46792;38.854;-9.384;2023-01-29T07:49:26;100026.72;;;5.11;61.17
60918;BME280;46792;38.854;-9.384;2023-01-29T07:51:45;100023.72;;;5.01;60.58
60918;BME280;46792;38.854;-9.384;2023-01-29T07:53:47;100034.84;;;4.98;60.96
60918;BME280;46792;38.854;-9.384;2023-01-29T07:56:22;100021.06;;;4.94;61.00
60918;BME280;46792;38.854;-9.384;2023-01-29T07:58:23;100028.44;;;4.99;61.09
60918;BME280;46792;38.854;-9.384;2023-01-29T08:00:24;100037.69;;;5.03;60.33
60918;BME280;46792;38.854;-9.384;2023-01-29T08:02:24;100033.19;;;4.97;60.22
60918;BME280;46792;38.854;-9.384;2023-01-29T08:07:03;100032.19;;;4.91;59.80
60918;BME280;46792;38.854;-9.384;2023-01-29T08:09:04;100040.84;;;4.93;60.04
60918;BME280;46792;38.854;-9.384;2023-01-29T08:11:04;100040.59;;;4.95;60.40
60918;BME280;46792;38.854;-9.384;2023-01-29T08:13:06;100055.63;;;4.96;60.01
60918;BME280;46792;38.854;-9.384;2023-01-29T08:15:07;100042.69;;;4.93;59.95
60918;BME280;46792;38.854;-9.384;2023-01-29T08:17:08;100046.94;;;5.00;59.91
60918;BME280;46792;38.854;-9.384;2023-01-29T08:19:08;100049.25;;;4.97;59.95
60918;BME280;46792;38.854;-9.384;2023-01-29T08:21:09;100054.22;;;4.93;60.00
60918;BME280;46792;38.854;-9.384;2023-01-29T08:23:14;100062.81;;;5.02;60.13
60918;BME280;46792;38.854;-9.384;2023-01-29T08:25:15;100061.97;;;5.01;59.87
60918;BME280;46792;38.854;-9.384;2023-01-29T08:27:35;100072.03;;;5.06;59.49
60918;BME280;46792;38.854;-9.384;2023-01-29T08:29:36;100072.63;;;5.08;59.88
60918;BME280;46792;38.854;-9.384;2023-01-29T08:31:36;100062.81;;;5.02;60.11
60918;BME280;46792;38.854;-9.384;2023-01-29T08:33:37;100066.53;;;5.01;59.99
60918;BME280;46792;38.854;-9.384;2023-01-29T08:35:56;100077.19;;;5.08;59.80
60918;BME280;46792;38.854;-9.384;2023-01-29T08:37:58;100070.63;;;5.03;60.09
60918;BME280;46792;38.854;-9.384;2023-01-29T08:39:59;100068.94;;;5.09;59.44
60918;BME280;46792;38.854;-9.384;2023-01-29T08:42:19;100084.56;;;5.12;59.59
60918;BME280;46792;38.854;-9.384;2023-01-29T08:44:38;100086.56;;;5.24;59.84
60918;BME280;46792;38.854;-9.384;2023-01-29T08:46:40;100076.69;;;5.24;59.27
60918;BME280;46792;38.854;-9.384;2023-01-29T08:48:40;100088.41;;;5.23;59.90
60918;BME280;46792;38.854;-9.384;2023-01-29T08:50:41;100088.81;;;5.27;60.22
60918;BME280;46792;38.854;-9.384;2023-01-29T08:52:42;100085.69;;;5.30;59.84
60918;BME280;46792;38.854;-9.384;2023-01-29T08:54:43;100097.19;;;5.37;59.43
60918;BME280;46792;38.854;-9.384;2023-01-29T08:56:43;100093.25;;;5.40;59.36
60918;BME280;46792;38.854;-9.384;2023-01-29T08:58:45;100092.88;;;5.36;59.87
60918;BME280;46792;38.854;-9.384;2023-01-29T09:00:45;100103.56;;;5.43;59.87
60918;BME280;46792;38.854;-9.384;2023-01-29T09:02:46;100097.91;;;5.51;59.95
60918;BME280;46792;38.854;-9.384;2023-01-29T09:05:05;100096.19;;;5.63;59.62
60918;BME280;46792;38.854;-9.384;2023-01-29T09:07:06;100098.59;;;5.72;58.90
60918;BME280;46792;38.854;-9.384;2023-01-29T09:09:07;100103.72;;;5.73;58.57
60918;BME280;46792;38.854;-9.384;2023-01-29T09:11:07;100096.66;;;5.79;58.94
60918;BME280;46792;38.854;-9.384;2023-01-29T09:13:08;100102.59;;;5.88;58.96
60918;BME280;46792;38.854;-9.384;2023-01-29T09:15:09;100109.31;;;5.97;58.68
60918;BME280;46792;38.854;-9.384;2023-01-29T09:17:10;100109.94;;;5.99;58.90
60918;BME280;46792;38.854;-9.384;2023-01-29T09:19:29;100107.22;;;6.06;58.58
60918;BME280;46792;38.854;-9.384;2023-01-29T09:21:30;100122.19;;;6.14;58.91
60918;BME280;46792;38.854;-9.384;2023-01-29T09:23:30;100125.47;;;6.16;58.81
60918;BME280;46792;38.854;-9.384;2023-01-29T09:25:31;100130.56;;;6.24;58.28
60918;BME280;46792;38.854;-9.384;2023-01-29T09:27:50;100123.09;;;6.26;57.86
60918;BME280;46792;38.854;-9.384;2023-01-29T09:30:09;100129.00;;;6.35;58.50
60918;BME280;46792;38.854;-9.384;2023-01-29T09:32:29;100133.50;;;6.41;57.54
60918;BME280;46792;38.854;-9.384;2023-01-29T09:34:29;100127.84;;;6.49;57.13
60918;BME280;46792;38.854;-9.384;2023-01-29T09:36:30;100138.31;;;6.51;57.19
60918;BME280;46792;38.854;-9.384;2023-01-29T09:38:49;100135.13;;;6.61;57.03
60918;BME280;46792;38.854;-9.384;2023-01-29T09:43:44;100134.00;;;6.68;57.16
60918;BME280;46792;38.854;-9.384;2023-01-29T09:46:04;100134.63;;;6.70;57.38
60918;BME280;46792;38.854;-9.384;2023-01-29T09:48:10;100143.78;;;6.81;56.77
60918;BME280;46792;38.854;-9.384;2023-01-29T09:50:16;100146.56;;;6.93;57.34
60918;BME280;46792;38.854;-9.384;2023-01-29T09:52:37;100145.19;;;7.03;56.74
60918;BME280;46792;38.854;-9.384;2023-01-29T09:56:56;100150.72;;;7.08;55.28
60918;BME280;46792;38.854;-9.384;2023-01-29T09:58:57;100143.53;;;7.20;55.85
60918;BME280;46792;38.854;-9.384;2023-01-29T10:05:48;100149.03;;;7.25;54.66
60918;BME280;46792;38.854;-9.384;2023-01-29T10:14:16;100148.56;;;7.59;55.42
60918;BME280;46792;38.854;-9.384;2023-01-29T10:17:17;100141.47;;;7.65;55.09
60918;BME280;46792;38.854;-9.384;2023-01-29T10:21:38;100152.72;;;7.85;53.96
60918;BME280;46792;38.854;-9.384;2023-01-29T10:26:10;100144.81;;;7.90;53.42
60918;BME280;46792;38.854;-9.384;2023-01-29T10:30:27;100155.78;;;8.01;53.38
60918;BME280;46792;38.854;-9.384;2023-01-29T10:32:30;100150.09;;;8.09;52.93
60918;BME280;46792;38.854;-9.384;2023-01-29T10:37:18;100150.22;;;8.38;53.56
60918;BME280;46792;38.854;-9.384;2023-01-29T10:39:24;100156.28;;;8.45;52.08
60918;BME280;46792;38.854;-9.384;2023-01-29T10:49:12;100151.28;;;8.61;51.78
60918;BME280;46792;38.854;-9.384;2023-01-29T10:51:21;100157.34;;;8.68;51.65
60918;BME280;46792;38.854;-9.384;2023-01-29T10:55:45;100156.16;;;8.88;51.82
60918;BME280;46792;38.854;-9.384;2023-01-29T11:00:44;100152.59;;;9.40;52.40
60918;BME280;46792;38.854;-9.384;2023-01-29T11:02:46;100150.72;;;9.40;50.64
60918;BME280;46792;38.854;-9.384;2023-01-29T11:04:47;100152.44;;;9.47;50.75
60918;BME280;46792;38.854;-9.384;2023-01-29T11:06:48;100154.19;;;9.53;50.71
60918;BME280;46792;38.854;-9.384;2023-01-29T11:11:21;100145.47;;;9.80;50.93
60918;BME280;46792;38.854;-9.384;2023-01-29T11:13:30;100137.31;;;9.92;50.07
60918;BME280;46792;38.854;-9.384;2023-01-29T11:15:32;100148.69;;;9.94;49.84
60918;BME280;46792;38.854;-9.384;2023-01-29T11:17:35;100142.28;;;10.00;49.92
60918;BME280;46792;38.854;-9.384;2023-01-29T11:19:38;100137.22;;;9.86;48.92
60918;BME280;46792;38.854;-9.384;2023-01-29T11:21:58;100146.06;;;9.82;48.81
60918;BME280;46792;38.854;-9.384;2023-01-29T11:24:13;100138.13;;;9.92;50.01
60918;BME280;46792;38.854;-9.384;2023-01-29T11:26:38;100138.69;;;9.94;49.24
60918;BME280;46792;38.854;-9.384;2023-01-29T11:28:44;100137.56;;;10.07;49.47
60918;BME280;46792;38.854;-9.384;2023-01-29T11:30:45;100137.13;;;10.15;49.77
60918;BME280;46792;38.854;-9.384;2023-01-29T11:32:55;100134.44;;;10.32;49.04
60918;BME280;46792;38.854;-9.384;2023-01-29T11:35:23;100128.28;;;10.37;48.76
60918;BME280;46792;38.854;-9.384;2023-01-29T11:37:39;100121.06;;;10.60;49.71
60918;BME280;46792;38.854;-9.384;2023-01-29T11:39:44;100118.81;;;10.74;48.91
60918;BME280;46792;38.854;-9.384;2023-01-29T11:41:47;100120.66;;;10.90;49.90
60918;BME280;46792;38.854;-9.384;2023-01-29T11:43:48;100120.00;;;10.83;46.69
60918;BME280;46792;38.854;-9.384;2023-01-29T11:45:52;100113.22;;;10.80;47.10
60918;BME280;46792;38.854;-9.384;2023-01-29T11:47:55;100096.91;;;10.70;47.49
60918;BME280;46792;38.854;-9.384;2023-01-29T11:50:00;100100.56;;;10.81;48.14
60918;BME280;46792;38.854;-9.384;2023-01-29T11:52:04;100094.50;;;10.96;49.25
60918;BME280;46792;38.854;-9.384;2023-01-29T11:54:14;100097.63;;;11.10;49.27
60918;BME280;46792;38.854;-9.384;2023-01-29T11:56:22;100075.59;;;11.23;49.08
60918;BME280;46792;38.854;-9.384;2023-01-29T11:58:32;100080.66;;;11.42;48.70
60918;BME280;46792;38.854;-9.384;2023-01-29T12:00:52;100085.00;;;11.43;48.10
60918;BME280;46792;38.854;-9.384;2023-01-29T12:03:03;100079.88;;;11.47;48.10
60918;BME280;46792;38.854;-9.384;2023-01-29T12:05:18;100075.53;;;11.46;47.78
60918;BME280;46792;38.854;-9.384;2023-01-29T12:07:19;100070.97;;;11.46;46.98
60918;BME280;46792;38.854;-9.384;2023-01-29T12:09:25;100076.38;;;11.46;47.65
60918;BME280;46792;38.854;-9.384;2023-01-29T12:11:29;100067.16;;;11.47;47.78
60918;BME280;46792;38.854;-9.384;2023-01-29T12:13:30;100064.94;;;11.39;47.04
60918;BME280;46792;38.854;-9.384;2023-01-29T12:15:31;100067.78;;;11.54;48.48
60918;BME280;46792;38.854;-9.384;2023-01-29T12:17:34;100077.47;;;11.50;47.03
60918;BME280;46792;38.854;-9.384;2023-01-29T12:19:45;100068.06;;;11.53;46.87
60918;BME280;46792;38.854;-9.384;2023-01-29T12:39:24;100063.81;;;12.00;46.47
60918;BME280;46792;38.854;-9.384;2023-01-29T12:41:40;100059.81;;;12.08;46.78
60918;BME280;46792;38.854;-9.384;2023-01-29T12:43:47;100063.97;;;12.21;46.74
60918;BME280;46792;38.854;-9.384;2023-01-29T12:45:51;100057.75;;;12.25;46.00
60918;BME280;46792;38.854;-9.384;2023-01-29T12:48:05;100050.50;;;12.36;46.12
60918;BME280;46792;38.854;-9.384;2023-01-29T12:52:41;100040.22;;;12.38;46.56
60918;BME280;46792;38.854;-9.384;2023-01-29T12:57:42;100042.94;;;12.38;45.89
60918;BME280;46792;38.854;-9.384;2023-01-29T13:00:12;100042.97;;;12.48;46.35
60918;BME280;46792;38.854;-9.384;2023-01-29T13:02:38;100022.91;;;12.39;45.96
60918;BME280;46792;38.854;-9.384;2023-01-29T13:04:47;100034.56;;;12.45;46.51
60918;BME280;46792;38.854;-9.384;2023-01-29T13:06:54;100032.19;;;12.54;46.48
60918;BME280;46792;38.854;-9.384;2023-01-29T13:09:24;100024.94;;;12.75;47.18
60918;BME280;46792;38.854;-9.384;2023-01-29T13:11:34;100027.09;;;12.73;46.47
60918;BME280;46792;38.854;-9.384;2023-01-29T13:21:15;100021.41;;;12.80;48.03
60918;BME280;46792;38.854;-9.384;2023-01-29T13:23:39;100024.16;;;12.90;48.14
60918;BME280;46792;38.854;-9.384;2023-01-29T13:25:42;100022.25;;;13.01;46.26
60918;BME280;46792;38.854;-9.384;2023-01-29T13:27:43;100019.03;;;13.09;46.04
60918;BME280;46792;38.854;-9.384;2023-01-29T13:29:47;100017.97;;;13.20;46.19
60918;BME280;46792;38.854;-9.384;2023-01-29T13:41:50;100002.78;;;13.66;44.78
60918;BME280;46792;38.854;-9.384;2023-01-29T13:43:51;100005.22;;;13.73;45.31
60918;BME280;46792;38.854;-9.384;2023-01-29T13:51:14;100005.22;;;13.83;43.76
60918;BME280;46792;38.854;-9.384;2023-01-29T13:53:34;100000.34;;;13.75;42.90
60918;BME280;46792;38.854;-9.384;2023-01-29T13:55:41;100000.06;;;13.81;43.86
60918;BME280;46792;38.854;-9.384;2023-01-29T14:00:01;100002.50;;;13.88;43.08
60918;BME280;46792;38.854;-9.384;2023-01-29T14:02:20;99992.41;;;14.04;44.23
60918;BME280;46792;38.854;-9.384;2023-01-29T14:04:23;99986.44;;;14.02;43.23
60918;BME280;46792;38.854;-9.384;2023-01-29T14:06:37;99986.19;;;14.04;42.46
60918;BME280;46792;38.854;-9.384;2023-01-29T14:08:43;99984.03;;;14.01;41.80
60918;BME280;46792;38.854;-9.384;2023-01-29T14:10:44;99996.47;;;14.12;43.03